sensor_id;sensor_type;location;lat;lon;timestamp;P1;durP1;ratioP1;P2;durP2;ratioP2
75167;SDS011;63748;48.088;11.476;2022-11-03T00:01:37;8.80;;;4.45;;
75167;SDS011;63748;48.088;11.476;2022-11-03T00:04:07;6.78;;;4.30;;
75167;SDS011;63748;48.088;11.476;2022-11-03T00:06:34;7.32;;;3.60;;
75167;SDS011;63748;48.088;11.476;2022-11-03T00:09:01;7.43;;;3.25;;
75167;SDS011;63748;48.088;11.476;2022-11-03T00:11:27;7.78;;;3.15;;
75167;SDS011;63748;48.088;11.476;2022-11-03T00:13:53;6.50;;;3.40;;
75167;SDS011;63748;48.088;11.476;2022-11-03T00:16:19;6.18;;;3.15;;
75167;SDS011;63748;48.088;11.476;2022-11-03T00:18:45;7.30;;;3.22;;
75167;SDS011;63748;48.088;11.476;2022-11-03T00:21:12;4.03;;;2.65;;
75167;SDS011;63748;48.088;11.476;2022-11-03T00:23:39;4.15;;;2.45;;
75167;SDS011;63748;48.088;11.476;2022-11-03T00:26:15;5.13;;;2.72;;
75167;SDS011;63748;48.088;11.476;2022-11-03T00:28:43;4.97;;;2.63;;
75167;SDS011;63748;48.088;11.476;2022-11-03T00:31:10;3.17;;;2.00;;
75167;SDS011;63748;48.088;11.476;2022-11-03T00:33:37;4.68;;;1.80;;
75167;SDS011;63748;48.088;11.476;2022-11-03T00:36:04;5.95;;;2.38;;
75167;SDS011;63748;48.088;11.476;2022-11-03T00:38:30;5.55;;;2.50;;
75167;SDS011;63748;48.088;11.476;2022-11-03T00:40:58;4.55;;;2.08;;
75167;SDS011;63748;48.088;11.476;2022-11-03T00:43:24;4.07;;;2.35;;
75167;SDS011;63748;48.088;11.476;2022-11-03T00:45:51;6.80;;;2.40;;
75167;SDS011;63748;48.088;11.476;2022-11-03T00:48:17;5.72;;;2.40;;
75167;SDS011;63748;48.088;11.476;2022-11-03T00:51:13;4.50;;;2.28;;
75167;SDS011;63748;48.088;11.476;2022-11-03T00:56:09;3.47;;;2.10;;
75167;SDS011;63748;48.088;11.476;2022-11-03T00:58:35;3.88;;;2.40;;
75167;SDS011;63748;48.088;11.476;2022-11-03T01:01:11;4.00;;;2.38;;
75167;SDS011;63748;48.088;11.476;2022-11-03T01:03:39;6.20;;;2.47;;
75167;SDS011;63748;48.088;11.476;2022-11-03T01:06:06;3.70;;;2.00;;
75167;SDS011;63748;48.088;11.476;2022-11-03T01:08:51;6.10;;;2.70;;
75167;SDS011;63748;48.088;11.476;2022-11-03T01:11:18;3.35;;;2.10;;
75167;SDS011;63748;48.088;11.476;2022-11-03T01:14:04;4.68;;;2.42;;
75167;SDS011;63748;48.088;11.476;2022-11-03T01:16:30;4.85;;;2.42;;
75167;SDS011;63748;48.088;11.476;2022-11-03T01:18:56;3.75;;;2.22;;
75167;SDS011;63748;48.088;11.476;2022-11-03T01:21:22;3.85;;;2.28;;
75167;SDS011;63748;48.088;11.476;2022-11-03T01:23:48;3.47;;;2.38;;
75167;SDS011;63748;48.088;11.476;2022-11-03T01:26:14;3.15;;;2.30;;
75167;SDS011;63748;48.088;11.476;2022-11-03T01:28:41;5.03;;;3.30;;
75167;SDS011;63748;48.088;11.476;2022-11-03T01:31:08;6.40;;;2.90;;
75167;SDS011;63748;48.088;11.476;2022-11-03T01:33:35;5.93;;;2.67;;
75167;SDS011;63748;48.088;11.476;2022-11-03T01:36:01;8.38;;;3.00;;
75167;SDS011;63748;48.088;11.476;2022-11-03T01:38:30;9.45;;;3.13;;
75167;SDS011;63748;48.088;11.476;2022-11-03T01:40:56;4.65;;;2.50;;
75167;SDS011;63748;48.088;11.476;2022-11-03T01:43:23;3.55;;;2.40;;
75167;SDS011;63748;48.088;11.476;2022-11-03T01:46:01;6.43;;;2.45;;
75167;SDS011;63748;48.088;11.476;2022-11-03T01:48:28;5.20;;;2.33;;
75167;SDS011;63748;48.088;11.476;2022-11-03T01:50:54;6.50;;;2.50;;
75167;SDS011;63748;48.088;11.476;2022-11-03T01:53:20;9.32;;;2.55;;
75167;SDS011;63748;48.088;11.476;2022-11-03T01:55:47;2.58;;;1.92;;
75167;SDS011;63748;48.088;11.476;2022-11-03T01:58:22;5.90;;;2.10;;
75167;SDS011;63748;48.088;11.476;2022-11-03T02:00:50;7.68;;;2.63;;
75167;SDS011;63748;48.088;11.476;2022-11-03T02:03:17;5.25;;;2.10;;
75167;SDS011;63748;48.088;11.476;2022-11-03T02:05:44;4.20;;;2.38;;
75167;SDS011;63748;48.088;11.476;2022-11-03T02:08:12;4.35;;;2.13;;
75167;SDS011;63748;48.088;11.476;2022-11-03T02:10:40;4.88;;;2.47;;
75167;SDS011;63748;48.088;11.476;2022-11-03T02:13:08;4.13;;;2.53;;
75167;SDS011;63748;48.088;11.476;2022-11-03T02:15:36;5.63;;;2.33;;
75167;SDS011;63748;48.088;11.476;2022-11-03T02:18:02;3.15;;;1.80;;
75167;SDS011;63748;48.088;11.476;2022-11-03T02:20:30;4.68;;;2.53;;
75167;SDS011;63748;48.088;11.476;2022-11-03T02:23:05;3.40;;;1.85;;
75167;SDS011;63748;48.088;11.476;2022-11-03T02:25:46;4.28;;;2.67;;
75167;SDS011;63748;48.088;11.476;2022-11-03T02:28:14;3.78;;;2.28;;
75167;SDS011;63748;48.088;11.476;2022-11-03T02:38:22;5.72;;;2.47;;
75167;SDS011;63748;48.088;11.476;2022-11-03T02:40:51;4.45;;;2.25;;
75167;SDS011;63748;48.088;11.476;2022-11-03T02:43:17;3.47;;;2.63;;
75167;SDS011;63748;48.088;11.476;2022-11-03T02:45:45;4.38;;;2.35;;
75167;SDS011;63748;48.088;11.476;2022-11-03T02:48:11;4.00;;;2.08;;
75167;SDS011;63748;48.088;11.476;2022-11-03T02:50:39;6.10;;;2.70;;
75167;SDS011;63748;48.088;11.476;2022-11-03T02:53:07;3.75;;;2.13;;
75167;SDS011;63748;48.088;11.476;2022-11-03T02:55:35;5.80;;;2.38;;
75167;SDS011;63748;48.088;11.476;2022-11-03T02:58:21;4.70;;;2.38;;
75167;SDS011;63748;48.088;11.476;2022-11-03T03:03:31;5.43;;;2.72;;
75167;SDS011;63748;48.088;11.476;2022-11-03T03:06:03;6.32;;;2.75;;
75167;SDS011;63748;48.088;11.476;2022-11-03T03:08:32;7.15;;;2.55;;
75167;SDS011;63748;48.088;11.476;2022-11-03T03:10:59;4.43;;;2.78;;
75167;SDS011;63748;48.088;11.476;2022-11-03T03:13:25;4.70;;;2.65;;
75167;SDS011;63748;48.088;11.476;2022-11-03T03:18:32;6.65;;;2.50;;
75167;SDS011;63748;48.088;11.476;2022-11-03T03:21:04;3.90;;;2.42;;
75167;SDS011;63748;48.088;11.476;2022-11-03T03:23:36;4.10;;;3.03;;
75167;SDS011;63748;48.088;11.476;2022-11-03T03:26:12;5.25;;;2.85;;
75167;SDS011;63748;48.088;11.476;2022-11-03T03:31:37;9.88;;;2.65;;
75167;SDS011;63748;48.088;11.476;2022-11-03T03:34:05;4.40;;;2.35;;
75167;SDS011;63748;48.088;11.476;2022-11-03T03:36:32;7.57;;;2.80;;
75167;SDS011;63748;48.088;11.476;2022-11-03T03:38:59;4.43;;;2.63;;
75167;SDS011;63748;48.088;11.476;2022-11-03T03:43:54;4.93;;;2.33;;
75167;SDS011;63748;48.088;11.476;2022-11-03T03:46:22;5.75;;;2.60;;
75167;SDS011;63748;48.088;11.476;2022-11-03T03:48:49;4.95;;;2.25;;
75167;SDS011;63748;48.088;11.476;2022-11-03T03:51:16;4.03;;;2.53;;
75167;SDS011;63748;48.088;11.476;2022-11-03T03:53:48;4.53;;;3.08;;
75167;SDS011;63748;48.088;11.476;2022-11-03T03:56:14;5.05;;;2.90;;
75167;SDS011;63748;48.088;11.476;2022-11-03T03:58:41;5.10;;;2.78;;
75167;SDS011;63748;48.088;11.476;2022-11-03T04:01:09;5.10;;;2.95;;
75167;SDS011;63748;48.088;11.476;2022-11-03T04:03:35;3.55;;;2.58;;
75167;SDS011;63748;48.088;11.476;2022-11-03T04:06:02;3.50;;;2.47;;
75167;SDS011;63748;48.088;11.476;2022-11-03T04:08:28;3.28;;;1.98;;
75167;SDS011;63748;48.088;11.476;2022-11-03T04:10:54;3.80;;;2.55;;
75167;SDS011;63748;48.088;11.476;2022-11-03T04:13:38;3.95;;;2.38;;
75167;SDS011;63748;48.088;11.476;2022-11-03T04:16:23;3.53;;;2.13;;
75167;SDS011;63748;48.088;11.476;2022-11-03T04:19:09;6.18;;;2.63;;
75167;SDS011;63748;48.088;11.476;2022-11-03T04:21:54;3.80;;;2.28;;
75167;SDS011;63748;48.088;11.476;2022-11-03T04:24:39;5.75;;;3.08;;
75167;SDS011;63748;48.088;11.476;2022-11-03T04:29:47;5.25;;;2.67;;
75167;SDS011;63748;48.088;11.476;2022-11-03T04:32:14;5.60;;;2.45;;
75167;SDS011;63748;48.088;11.476;2022-11-03T04:34:41;4.22;;;2.63;;
75167;SDS011;63748;48.088;11.476;2022-11-03T04:37:08;4.10;;;2.63;;
75167;SDS011;63748;48.088;11.476;2022-11-03T04:39:36;6.20;;;3.13;;
75167;SDS011;63748;48.088;11.476;2022-11-03T04:42:03;4.97;;;2.55;;
75167;SDS011;63748;48.088;11.476;2022-11-03T04:44:29;3.83;;;2.67;;
75167;SDS011;63748;48.088;11.476;2022-11-03T04:46:55;6.32;;;2.83;;
75167;SDS011;63748;48.088;11.476;2022-11-03T04:49:21;4.65;;;2.90;;
75167;SDS011;63748;48.088;11.476;2022-11-03T04:51:48;3.80;;;2.35;;
75167;SDS011;63748;48.088;11.476;2022-11-03T04:54:18;4.32;;;2.83;;
75167;SDS011;63748;48.088;11.476;2022-11-03T04:56:46;7.70;;;3.60;;
75167;SDS011;63748;48.088;11.476;2022-11-03T04:59:13;6.10;;;3.05;;
75167;SDS011;63748;48.088;11.476;2022-11-03T05:01:39;6.82;;;2.92;;
75167;SDS011;63748;48.088;11.476;2022-11-03T05:04:12;5.43;;;3.10;;
75167;SDS011;63748;48.088;11.476;2022-11-03T05:06:39;5.75;;;3.10;;
75167;SDS011;63748;48.088;11.476;2022-11-03T05:09:13;4.63;;;2.67;;
75167;SDS011;63748;48.088;11.476;2022-11-03T05:11:41;8.45;;;2.60;;
75167;SDS011;63748;48.088;11.476;2022-11-03T05:14:21;6.88;;;2.90;;
75167;SDS011;63748;48.088;11.476;2022-11-03T05:16:48;4.22;;;2.13;;
75167;SDS011;63748;48.088;11.476;2022-11-03T05:19:35;5.63;;;2.33;;
75167;SDS011;63748;48.088;11.476;2022-11-03T05:22:02;4.68;;;2.50;;
75167;SDS011;63748;48.088;11.476;2022-11-03T05:24:29;5.20;;;2.88;;
75167;SDS011;63748;48.088;11.476;2022-11-03T05:26:56;3.38;;;2.42;;
75167;SDS011;63748;48.088;11.476;2022-11-03T05:29:32;3.17;;;2.38;;
75167;SDS011;63748;48.088;11.476;2022-11-03T05:31:59;7.97;;;2.63;;
75167;SDS011;63748;48.088;11.476;2022-11-03T05:36:52;4.57;;;2.28;;
75167;SDS011;63748;48.088;11.476;2022-11-03T05:41:50;5.30;;;2.92;;
75167;SDS011;63748;48.088;11.476;2022-11-03T05:46:48;5.18;;;3.10;;
75167;SDS011;63748;48.088;11.476;2022-11-03T05:49:14;7.15;;;3.15;;
75167;SDS011;63748;48.088;11.476;2022-11-03T05:51:40;6.07;;;3.03;;
75167;SDS011;63748;48.088;11.476;2022-11-03T05:54:41;6.85;;;3.25;;
75167;SDS011;63748;48.088;11.476;2022-11-03T05:57:00;7.53;;;3.92;;
75167;SDS011;63748;48.088;11.476;2022-11-03T05:59:27;10.35;;;5.60;;
75167;SDS011;63748;48.088;11.476;2022-11-03T06:01:54;18.55;;;9.65;;
75167;SDS011;63748;48.088;11.476;2022-11-03T06:04:25;20.95;;;10.55;;
75167;SDS011;63748;48.088;11.476;2022-11-03T06:06:54;11.65;;;5.55;;
75167;SDS011;63748;48.088;11.476;2022-11-03T06:09:22;8.82;;;4.15;;
75167;SDS011;63748;48.088;11.476;2022-11-03T06:11:50;6.40;;;3.65;;
75167;SDS011;63748;48.088;11.476;2022-11-03T06:14:18;8.35;;;3.13;;
75167;SDS011;63748;48.088;11.476;2022-11-03T06:16:51;4.95;;;2.70;;
75167;SDS011;63748;48.088;11.476;2022-11-03T06:19:26;6.78;;;2.67;;
75167;SDS011;63748;48.088;11.476;2022-11-03T06:21:55;3.38;;;2.35;;
75167;SDS011;63748;48.088;11.476;2022-11-03T06:24:22;4.82;;;2.97;;
75167;SDS011;63748;48.088;11.476;2022-11-03T06:26:50;4.57;;;2.65;;
75167;SDS011;63748;48.088;11.476;2022-11-03T06:29:18;3.53;;;2.25;;
75167;SDS011;63748;48.088;11.476;2022-11-03T06:31:46;4.43;;;2.78;;
75167;SDS011;63748;48.088;11.476;2022-11-03T06:34:20;3.42;;;2.50;;
75167;SDS011;63748;48.088;11.476;2022-11-03T06:36:47;4.38;;;2.60;;
75167;SDS011;63748;48.088;11.476;2022-11-03T06:39:20;4.00;;;2.53;;
75167;SDS011;63748;48.088;11.476;2022-11-03T06:41:50;3.90;;;2.50;;
75167;SDS011;63748;48.088;11.476;2022-11-03T06:44:23;4.95;;;2.50;;
75167;SDS011;63748;48.088;11.476;2022-11-03T06:46:53;3.08;;;2.40;;
75167;SDS011;63748;48.088;11.476;2022-11-03T06:51:52;3.05;;;2.30;;
75167;SDS011;63748;48.088;11.476;2022-11-03T06:54:18;2.75;;;2.00;;
75167;SDS011;63748;48.088;11.476;2022-11-03T06:56:44;5.10;;;2.75;;
75167;SDS011;63748;48.088;11.476;2022-11-03T06:59:10;4.85;;;2.55;;
75167;SDS011;63748;48.088;11.476;2022-11-03T07:01:38;3.53;;;2.30;;
75167;SDS011;63748;48.088;11.476;2022-11-03T07:04:11;4.25;;;2.28;;
75167;SDS011;63748;48.088;11.476;2022-11-03T07:06:37;15.55;;;7.63;;
75167;SDS011;63748;48.088;11.476;2022-11-03T07:09:04;23.95;;;11.35;;
75167;SDS011;63748;48.088;11.476;2022-11-03T07:11:33;46.80;;;21.85;;
75167;SDS011;63748;48.088;11.476;2022-11-03T07:14:10;19.98;;;12.38;;
75167;SDS011;63748;48.088;11.476;2022-11-03T07:16:43;9.85;;;5.07;;
75167;SDS011;63748;48.088;11.476;2022-11-03T07:19:43;11.00;;;5.80;;
75167;SDS011;63748;48.088;11.476;2022-11-03T07:22:03;11.50;;;6.10;;
75167;SDS011;63748;48.088;11.476;2022-11-03T07:24:40;11.00;;;4.90;;
75167;SDS011;63748;48.088;11.476;2022-11-03T07:27:25;9.63;;;4.32;;
75167;SDS011;63748;48.088;11.476;2022-11-03T07:29:52;5.15;;;3.30;;
75167;SDS011;63748;48.088;11.476;2022-11-03T07:32:23;4.72;;;3.00;;
75167;SDS011;63748;48.088;11.476;2022-11-03T07:34:50;4.13;;;2.70;;
75167;SDS011;63748;48.088;11.476;2022-11-03T07:37:21;8.05;;;3.25;;
75167;SDS011;63748;48.088;11.476;2022-11-03T07:39:47;3.85;;;2.47;;
75167;SDS011;63748;48.088;11.476;2022-11-03T07:42:18;5.47;;;3.28;;
75167;SDS011;63748;48.088;11.476;2022-11-03T07:44:45;5.28;;;3.50;;
75167;SDS011;63748;48.088;11.476;2022-11-03T07:47:24;5.40;;;2.90;;
75167;SDS011;63748;48.088;11.476;2022-11-03T07:49:50;4.22;;;2.53;;
75167;SDS011;63748;48.088;11.476;2022-11-03T07:52:20;2.88;;;2.40;;
75167;SDS011;63748;48.088;11.476;2022-11-03T07:54:47;3.90;;;2.67;;
75167;SDS011;63748;48.088;11.476;2022-11-03T07:57:27;4.72;;;2.55;;
75167;SDS011;63748;48.088;11.476;2022-11-03T08:00:02;4.60;;;2.28;;
75167;SDS011;63748;48.088;11.476;2022-11-03T08:02:36;3.75;;;2.40;;
75167;SDS011;63748;48.088;11.476;2022-11-03T08:05:06;5.15;;;2.58;;
75167;SDS011;63748;48.088;11.476;2022-11-03T08:07:32;3.00;;;2.10;;
75167;SDS011;63748;48.088;11.476;2022-11-03T08:09:58;3.60;;;2.28;;
75167;SDS011;63748;48.088;11.476;2022-11-03T08:12:24;4.03;;;2.08;;
75167;SDS011;63748;48.088;11.476;2022-11-03T08:14:50;3.65;;;2.45;;
75167;SDS011;63748;48.088;11.476;2022-11-03T08:17:16;3.55;;;2.15;;
75167;SDS011;63748;48.088;11.476;2022-11-03T08:22:08;3.92;;;2.10;;
75167;SDS011;63748;48.088;11.476;2022-11-03T08:24:34;3.15;;;2.83;;
75167;SDS011;63748;48.088;11.476;2022-11-03T08:27:00;3.95;;;2.17;;
75167;SDS011;63748;48.088;11.476;2022-11-03T08:29:27;4.80;;;2.05;;
75167;SDS011;63748;48.088;11.476;2022-11-03T08:31:54;4.30;;;2.20;;
75167;SDS011;63748;48.088;11.476;2022-11-03T08:34:20;2.50;;;1.85;;
75167;SDS011;63748;48.088;11.476;2022-11-03T08:36:46;5.47;;;2.20;;
75167;SDS011;63748;48.088;11.476;2022-11-03T08:39:12;4.00;;;2.13;;
75167;SDS011;63748;48.088;11.476;2022-11-03T08:41:38;5.18;;;2.38;;
75167;SDS011;63748;48.088;11.476;2022-11-03T08:44:04;2.88;;;2.20;;
75167;SDS011;63748;48.088;11.476;2022-11-03T08:46:30;3.40;;;2.15;;
75167;SDS011;63748;48.088;11.476;2022-11-03T08:48:56;4.57;;;3.03;;
75167;SDS011;63748;48.088;11.476;2022-11-03T08:51:23;5.70;;;2.45;;
75167;SDS011;63748;48.088;11.476;2022-11-03T08:53:49;3.83;;;2.30;;
75167;SDS011;63748;48.088;11.476;2022-11-03T08:56:17;3.45;;;2.60;;
75167;SDS011;63748;48.088;11.476;2022-11-03T08:58:44;4.47;;;2.53;;
75167;SDS011;63748;48.088;11.476;2022-11-03T09:01:10;4.72;;;3.05;;
75167;SDS011;63748;48.088;11.476;2022-11-03T09:03:36;4.43;;;2.40;;
75167;SDS011;63748;48.088;11.476;2022-11-03T09:06:02;3.90;;;2.58;;
75167;SDS011;63748;48.088;11.476;2022-11-03T09:08:28;4.72;;;3.13;;
75167;SDS011;63748;48.088;11.476;2022-11-03T09:10:55;4.60;;;2.92;;
75167;SDS011;63748;48.088;11.476;2022-11-03T09:13:21;4.30;;;2.58;;
75167;SDS011;63748;48.088;11.476;2022-11-03T09:15:47;3.15;;;1.88;;
75167;SDS011;63748;48.088;11.476;2022-11-03T09:18:13;2.40;;;1.85;;
75167;SDS011;63748;48.088;11.476;2022-11-03T09:20:39;1.92;;;1.65;;
75167;SDS011;63748;48.088;11.476;2022-11-03T09:23:06;3.13;;;2.38;;
75167;SDS011;63748;48.088;11.476;2022-11-03T09:25:32;3.88;;;2.00;;
75167;SDS011;63748;48.088;11.476;2022-11-03T09:27:58;4.70;;;1.95;;
75167;SDS011;63748;48.088;11.476;2022-11-03T09:30:24;2.90;;;1.58;;
75167;SDS011;63748;48.088;11.476;2022-11-03T09:32:50;3.70;;;2.47;;
75167;SDS011;63748;48.088;11.476;2022-11-03T09:35:16;4.05;;;1.80;;
75167;SDS011;63748;48.088;11.476;2022-11-03T09:37:42;3.45;;;2.08;;
75167;SDS011;63748;48.088;11.476;2022-11-03T09:40:09;3.50;;;1.88;;
75167;SDS011;63748;48.088;11.476;2022-11-03T09:42:35;3.45;;;1.98;;
75167;SDS011;63748;48.088;11.476;2022-11-03T09:45:02;2.85;;;1.52;;
75167;SDS011;63748;48.088;11.476;2022-11-03T09:47:32;2.20;;;1.58;;
75167;SDS011;63748;48.088;11.476;2022-11-03T09:49:59;2.60;;;1.85;;
75167;SDS011;63748;48.088;11.476;2022-11-03T09:52:25;4.88;;;2.47;;
75167;SDS011;63748;48.088;11.476;2022-11-03T09:54:51;3.10;;;1.45;;
75167;SDS011;63748;48.088;11.476;2022-11-03T09:57:21;3.17;;;2.17;;
75167;SDS011;63748;48.088;11.476;2022-11-03T09:59:48;5.43;;;1.88;;
75167;SDS011;63748;48.088;11.476;2022-11-03T10:02:25;2.40;;;1.65;;
75167;SDS011;63748;48.088;11.476;2022-11-03T10:04:52;3.05;;;1.77;;
75167;SDS011;63748;48.088;11.476;2022-11-03T10:07:18;4.72;;;1.77;;
75167;SDS011;63748;48.088;11.476;2022-11-03T10:09:46;3.28;;;1.52;;
75167;SDS011;63748;48.088;11.476;2022-11-03T10:12:13;2.25;;;1.60;;
75167;SDS011;63748;48.088;11.476;2022-11-03T10:14:40;5.10;;;2.20;;
75167;SDS011;63748;48.088;11.476;2022-11-03T10:17:07;3.72;;;1.70;;
75167;SDS011;63748;48.088;11.476;2022-11-03T10:19:35;3.22;;;2.00;;
75167;SDS011;63748;48.088;11.476;2022-11-03T10:22:01;4.68;;;1.80;;
75167;SDS011;63748;48.088;11.476;2022-11-03T10:24:27;3.15;;;1.60;;
75167;SDS011;63748;48.088;11.476;2022-11-03T10:26:53;4.50;;;1.67;;
75167;SDS011;63748;48.088;11.476;2022-11-03T10:29:23;2.72;;;1.80;;
75167;SDS011;63748;48.088;11.476;2022-11-03T10:31:51;3.53;;;1.90;;
75167;SDS011;63748;48.088;11.476;2022-11-03T10:36:49;3.20;;;1.80;;
75167;SDS011;63748;48.088;11.476;2022-11-03T10:39:22;3.10;;;1.52;;
75167;SDS011;63748;48.088;11.476;2022-11-03T10:41:56;3.53;;;1.55;;
75167;SDS011;63748;48.088;11.476;2022-11-03T10:44:22;3.13;;;1.88;;
75167;SDS011;63748;48.088;11.476;2022-11-03T10:49:23;3.05;;;1.80;;
75167;SDS011;63748;48.088;11.476;2022-11-03T10:51:50;4.45;;;1.85;;
75167;SDS011;63748;48.088;11.476;2022-11-03T10:54:17;4.88;;;1.95;;
75167;SDS011;63748;48.088;11.476;2022-11-03T10:56:44;4.20;;;2.05;;
75167;SDS011;63748;48.088;11.476;2022-11-03T10:59:16;4.22;;;1.50;;
75167;SDS011;63748;48.088;11.476;2022-11-03T11:01:43;4.63;;;1.70;;
75167;SDS011;63748;48.088;11.476;2022-11-03T11:04:16;3.53;;;2.05;;
75167;SDS011;63748;48.088;11.476;2022-11-03T11:06:42;2.95;;;2.13;;
75167;SDS011;63748;48.088;11.476;2022-11-03T11:09:11;3.80;;;2.03;;
75167;SDS011;63748;48.088;11.476;2022-11-03T11:11:37;3.60;;;2.00;;
75167;SDS011;63748;48.088;11.476;2022-11-03T11:16:51;3.50;;;2.15;;
75167;SDS011;63748;48.088;11.476;2022-11-03T11:19:18;2.97;;;1.65;;
75167;SDS011;63748;48.088;11.476;2022-11-03T11:24:11;5.10;;;1.88;;
75167;SDS011;63748;48.088;11.476;2022-11-03T11:26:37;3.97;;;2.00;;
75167;SDS011;63748;48.088;11.476;2022-11-03T11:31:37;3.40;;;1.88;;
75167;SDS011;63748;48.088;11.476;2022-11-03T11:36:46;5.78;;;2.25;;
75167;SDS011;63748;48.088;11.476;2022-11-03T11:39:57;3.00;;;1.92;;
75167;SDS011;63748;48.088;11.476;2022-11-03T11:55:12;7.82;;;3.90;;
75167;SDS011;63748;48.088;11.476;2022-11-03T11:57:41;5.45;;;2.83;;
75167;SDS011;63748;48.088;11.476;2022-11-03T12:00:28;6.32;;;3.45;;
75167;SDS011;63748;48.088;11.476;2022-11-03T12:02:53;6.15;;;4.00;;
75167;SDS011;63748;48.088;11.476;2022-11-03T12:05:23;4.78;;;3.63;;
75167;SDS011;63748;48.088;11.476;2022-11-03T12:07:51;9.48;;;4.53;;
75167;SDS011;63748;48.088;11.476;2022-11-03T12:10:19;5.50;;;4.18;;
75167;SDS011;63748;48.088;11.476;2022-11-03T12:12:47;7.45;;;4.32;;
75167;SDS011;63748;48.088;11.476;2022-11-03T12:17:58;6.82;;;4.15;;
75167;SDS011;63748;48.088;11.476;2022-11-03T12:20:33;8.85;;;4.20;;
75167;SDS011;63748;48.088;11.476;2022-11-03T12:23:00;6.00;;;4.00;;
75167;SDS011;63748;48.088;11.476;2022-11-03T12:25:35;7.07;;;3.88;;
75167;SDS011;63748;48.088;11.476;2022-11-03T12:28:04;8.90;;;4.82;;
75167;SDS011;63748;48.088;11.476;2022-11-03T12:30:30;6.70;;;4.45;;
75167;SDS011;63748;48.088;11.476;2022-11-03T12:32:56;8.63;;;4.78;;
75167;SDS011;63748;48.088;11.476;2022-11-03T12:35:22;8.60;;;4.63;;
75167;SDS011;63748;48.088;11.476;2022-11-03T12:37:48;11.32;;;4.80;;
75167;SDS011;63748;48.088;11.476;2022-11-03T12:40:14;7.45;;;4.82;;
75167;SDS011;63748;48.088;11.476;2022-11-03T12:42:40;8.85;;;5.32;;
75167;SDS011;63748;48.088;11.476;2022-11-03T12:45:06;7.63;;;5.00;;
75167;SDS011;63748;48.088;11.476;2022-11-03T12:47:32;11.18;;;5.20;;
75167;SDS011;63748;48.088;11.476;2022-11-03T12:49:59;9.05;;;5.32;;
75167;SDS011;63748;48.088;11.476;2022-11-03T12:52:25;11.40;;;5.65;;
75167;SDS011;63748;48.088;11.476;2022-11-03T12:54:51;9.70;;;5.30;;
75167;SDS011;63748;48.088;11.476;2022-11-03T12:57:17;8.57;;;5.22;;
75167;SDS011;63748;48.088;11.476;2022-11-03T12:59:43;9.00;;;5.57;;
75167;SDS011;63748;48.088;11.476;2022-11-03T13:02:09;10.15;;;5.85;;
75167;SDS011;63748;48.088;11.476;2022-11-03T13:04:35;8.05;;;5.45;;
75167;SDS011;63748;48.088;11.476;2022-11-03T13:07:01;8.63;;;5.15;;
75167;SDS011;63748;48.088;11.476;2022-11-03T13:09:28;10.75;;;5.60;;
75167;SDS011;63748;48.088;11.476;2022-11-03T13:11:54;8.00;;;4.78;;
75167;SDS011;63748;48.088;11.476;2022-11-03T13:14:38;8.45;;;4.72;;
75167;SDS011;63748;48.088;11.476;2022-11-03T13:17:04;8.85;;;4.78;;
75167;SDS011;63748;48.088;11.476;2022-11-03T13:19:30;7.10;;;4.60;;
75167;SDS011;63748;48.088;11.476;2022-11-03T13:21:56;7.47;;;4.78;;
75167;SDS011;63748;48.088;11.476;2022-11-03T13:24:22;7.43;;;4.65;;
75167;SDS011;63748;48.088;11.476;2022-11-03T13:26:49;9.10;;;5.10;;
75167;SDS011;63748;48.088;11.476;2022-11-03T13:29:15;10.10;;;4.97;;
75167;SDS011;63748;48.088;11.476;2022-11-03T13:31:41;7.93;;;4.65;;
75167;SDS011;63748;48.088;11.476;2022-11-03T13:34:07;8.63;;;4.68;;
75167;SDS011;63748;48.088;11.476;2022-11-03T13:36:33;7.32;;;5.30;;
75167;SDS011;63748;48.088;11.476;2022-11-03T13:38:59;8.07;;;4.28;;
75167;SDS011;63748;48.088;11.476;2022-11-03T13:41:25;9.07;;;5.57;;
75167;SDS011;63748;48.088;11.476;2022-11-03T13:43:51;7.15;;;4.43;;
75167;SDS011;63748;48.088;11.476;2022-11-03T13:46:17;5.10;;;4.22;;
75167;SDS011;63748;48.088;11.476;2022-11-03T13:48:43;9.43;;;4.88;;
75167;SDS011;63748;48.088;11.476;2022-11-03T13:51:09;9.05;;;4.70;;
75167;SDS011;63748;48.088;11.476;2022-11-03T13:53:36;8.20;;;5.25;;
75167;SDS011;63748;48.088;11.476;2022-11-03T13:56:02;7.60;;;4.05;;
75167;SDS011;63748;48.088;11.476;2022-11-03T13:58:28;7.88;;;4.55;;
75167;SDS011;63748;48.088;11.476;2022-11-03T14:00:54;7.95;;;4.68;;
75167;SDS011;63748;48.088;11.476;2022-11-03T14:03:20;7.88;;;5.47;;
75167;SDS011;63748;48.088;11.476;2022-11-03T14:05:46;8.50;;;4.32;;
75167;SDS011;63748;48.088;11.476;2022-11-03T14:08:12;8.65;;;4.65;;
75167;SDS011;63748;48.088;11.476;2022-11-03T14:10:38;9.10;;;4.55;;
75167;SDS011;63748;48.088;11.476;2022-11-03T14:13:05;9.25;;;4.90;;
75167;SDS011;63748;48.088;11.476;2022-11-03T14:15:31;8.77;;;4.50;;
75167;SDS011;63748;48.088;11.476;2022-11-03T14:17:58;7.93;;;4.10;;
75167;SDS011;63748;48.088;11.476;2022-11-03T14:20:25;7.88;;;4.30;;
75167;SDS011;63748;48.088;11.476;2022-11-03T14:22:51;6.40;;;3.95;;
75167;SDS011;63748;48.088;11.476;2022-11-03T14:25:17;7.15;;;4.80;;
75167;SDS011;63748;48.088;11.476;2022-11-03T14:27:44;7.63;;;4.15;;
75167;SDS011;63748;48.088;11.476;2022-11-03T14:30:11;7.40;;;4.05;;
75167;SDS011;63748;48.088;11.476;2022-11-03T14:32:37;6.47;;;4.55;;
75167;SDS011;63748;48.088;11.476;2022-11-03T14:35:03;6.88;;;4.72;;
75167;SDS011;63748;48.088;11.476;2022-11-03T14:37:29;8.65;;;4.03;;
75167;SDS011;63748;48.088;11.476;2022-11-03T14:39:55;5.93;;;4.05;;
75167;SDS011;63748;48.088;11.476;2022-11-03T14:42:21;7.90;;;4.53;;
75167;SDS011;63748;48.088;11.476;2022-11-03T14:44:48;6.25;;;3.90;;
75167;SDS011;63748;48.088;11.476;2022-11-03T14:47:15;5.95;;;3.45;;
75167;SDS011;63748;48.088;11.476;2022-11-03T14:49:42;8.27;;;4.72;;
75167;SDS011;63748;48.088;11.476;2022-11-03T14:52:08;8.65;;;4.03;;
75167;SDS011;63748;48.088;11.476;2022-11-03T14:54:34;7.93;;;4.05;;
75167;SDS011;63748;48.088;11.476;2022-11-03T14:57:01;6.55;;;4.63;;
75167;SDS011;63748;48.088;11.476;2022-11-03T14:59:27;10.38;;;4.40;;
75167;SDS011;63748;48.088;11.476;2022-11-03T15:01:53;6.82;;;4.13;;
75167;SDS011;63748;48.088;11.476;2022-11-03T15:04:20;6.22;;;3.85;;
75167;SDS011;63748;48.088;11.476;2022-11-03T15:06:46;6.07;;;4.30;;
75167;SDS011;63748;48.088;11.476;2022-11-03T15:09:13;9.77;;;6.10;;
75167;SDS011;63748;48.088;11.476;2022-11-03T15:11:40;8.95;;;4.53;;
75167;SDS011;63748;48.088;11.476;2022-11-03T15:14:06;11.82;;;4.38;;
75167;SDS011;63748;48.088;11.476;2022-11-03T15:16:32;5.10;;;3.75;;
75167;SDS011;63748;48.088;11.476;2022-11-03T15:19:01;8.07;;;4.13;;
75167;SDS011;63748;48.088;11.476;2022-11-03T15:21:30;5.15;;;4.05;;
75167;SDS011;63748;48.088;11.476;2022-11-03T15:23:56;6.85;;;3.97;;
75167;SDS011;63748;48.088;11.476;2022-11-03T15:26:22;5.78;;;3.92;;
75167;SDS011;63748;48.088;11.476;2022-11-03T15:28:48;12.18;;;3.88;;
75167;SDS011;63748;48.088;11.476;2022-11-03T15:31:14;7.78;;;4.30;;
75167;SDS011;63748;48.088;11.476;2022-11-03T15:33:40;6.70;;;4.78;;
75167;SDS011;63748;48.088;11.476;2022-11-03T15:36:07;8.05;;;4.57;;
75167;SDS011;63748;48.088;11.476;2022-11-03T15:38:33;7.35;;;3.83;;
75167;SDS011;63748;48.088;11.476;2022-11-03T15:40:59;6.93;;;4.65;;
75167;SDS011;63748;48.088;11.476;2022-11-03T15:43:43;7.22;;;4.55;;
75167;SDS011;63748;48.088;11.476;2022-11-03T15:46:10;8.43;;;5.18;;
75167;SDS011;63748;48.088;11.476;2022-11-03T15:48:36;9.57;;;4.78;;